• Join FlightAware (Why Join?)
  • Login
  • US Flag 
01:40AM EDT


 

Airport Tracker/Info


-or-


 

Live Flight TrackerFlight Track Log ✈ N93XP ✈ 08-May-2013 ✈ KGYY - KPWK

Flight Track Log - Related Links

Times and Time Zones

All times are in EDT time to prevent confusion due to time zone crossing. See the N93XP flight status page for this flight to view local times or setup timezone preferences in your user account.

Time Position Orientation Groundspeed Altitude Reporting Facility
EDT Latitude Longitude Course Direction KTS MPH feet Rate Location/Type
07:04AM 41.6667 -87.4500 323° Northwest 216 249 2,600  Level Chicago TRACON
07:05AM 41.7394 -87.4597 354° North 253 291 3,000 180 Climbing Chicago Center
07:06AM 41.8108 -87.4744 351° North 260 299 3,000  Level Chicago Center
07:07AM 41.8833 -87.4833 355° North 260 299 3,000  Level Chicago TRACON
07:08AM 41.9500 -87.5000 349° North 258 297 3,000  Level Chicago TRACON
07:09AM 41.9177 -87.7005 323° Northwest  Level FlightAware Approximate
07:09AM 42.0167 -87.5333 340° North 257 296 3,000  Level Chicago TRACON
07:10AM 42.0667 -87.5833 323° Northwest 243 280 3,000  Level Chicago TRACON
07:11AM 42.1167 -87.6333 323° Northwest 227 261 3,000  Level Chicago TRACON
07:11AM 42.1667 -87.6833 323° Northwest 220 253 3,000  Level Chicago TRACON
07:12AM 42.1819 -87.6983 324° Northwest 225 259 3,000  Level Chicago Center
07:13AM 42.2319 -87.7486 323° Northwest 225 259 3,000  Level Chicago Center
07:14AM 42.2806 -87.7953 325° Northwest 219 252 3,000 -300 Level Chicago Center
07:15AM 42.2864 -87.8686 276° West 214 246 2,500 -300 Descending Chicago Center
07:16AM 42.2556 -87.9142 228° Southwest 197 227 2,400 -60 Descending Chicago Center
07:17AM 42.2147 -87.9306 197° South 160 184 2,400 -300 Level Chicago Center
07:18AM 42.1756 -87.9389 189° South 147 169 1,900 -720 Descending Chicago Center
07:19AM 42.1392 -87.9158 155° Southeast 143 165 1,000 -540 Descending Chicago Center
07:20AM 42.0967 -87.8883 154° Southeast 141 162 800 -240 Descending Chicago Center
07:21AM 42.1167 -87.9014 334° Northwest 116 133 600 -240 Descending Chicago Center